sensor_id;sensor_type;location;lat;lon;timestamp;P1;durP1;ratioP1;P2;durP2;ratioP2
59408;SDS011;45213;32.654;-115.458;2022-09-20T00:03:35;5.32;;;2.20;;
59408;SDS011;45213;32.654;-115.458;2022-09-20T00:06:04;6.00;;;1.67;;
59408;SDS011;45213;32.654;-115.458;2022-09-20T00:08:32;6.47;;;2.10;;
59408;SDS011;45213;32.654;-115.458;2022-09-20T00:11:03;6.40;;;2.17;;
59408;SDS011;45213;32.654;-115.458;2022-09-20T00:13:32;12.65;;;3.00;;
59408;SDS011;45213;32.654;-115.458;2022-09-20T00:16:03;12.23;;;2.47;;
59408;SDS011;45213;32.654;-115.458;2022-09-20T00:18:31;4.32;;;1.65;;
59408;SDS011;45213;32.654;-115.458;2022-09-20T00:20:57;5.05;;;1.85;;
59408;SDS011;45213;32.654;-115.458;2022-09-20T00:23:24;4.22;;;2.05;;
59408;SDS011;45213;32.654;-115.458;2022-09-20T00:25:54;6.03;;;1.60;;
59408;SDS011;45213;32.654;-115.458;2022-09-20T00:28:25;4.85;;;1.83;;
59408;SDS011;45213;32.654;-115.458;2022-09-20T00:30:53;7.05;;;2.10;;
59408;SDS011;45213;32.654;-115.458;2022-09-20T00:33:21;10.98;;;2.20;;
59408;SDS011;45213;32.654;-115.458;2022-09-20T00:35:49;7.55;;;2.25;;
59408;SDS011;45213;32.654;-115.458;2022-09-20T00:38:16;7.57;;;2.42;;
59408;SDS011;45213;32.654;-115.458;2022-09-20T00:40:43;5.47;;;1.90;;
59408;SDS011;45213;32.654;-115.458;2022-09-20T00:43:14;7.35;;;2.40;;
59408;SDS011;45213;32.654;-115.458;2022-09-20T00:45:42;5.38;;;2.03;;
59408;SDS011;45213;32.654;-115.458;2022-09-20T00:51:26;5.97;;;2.30;;
59408;SDS011;45213;32.654;-115.458;2022-09-20T00:53:38;5.40;;;2.17;;
59408;SDS011;45213;32.654;-115.458;2022-09-20T00:56:20;8.73;;;2.55;;
59408;SDS011;45213;32.654;-115.458;2022-09-20T00:58:50;6.20;;;2.13;;
59408;SDS011;45213;32.654;-115.458;2022-09-20T01:01:35;5.35;;;2.17;;
59408;SDS011;45213;32.654;-115.458;2022-09-20T01:04:02;10.88;;;2.30;;
59408;SDS011;45213;32.654;-115.458;2022-09-20T01:06:29;8.50;;;1.92;;
59408;SDS011;45213;32.654;-115.458;2022-09-20T01:09:00;4.97;;;1.83;;
59408;SDS011;45213;32.654;-115.458;2022-09-20T01:11:31;8.75;;;2.50;;
59408;SDS011;45213;32.654;-115.458;2022-09-20T01:14:01;10.48;;;2.38;;
59408;SDS011;45213;32.654;-115.458;2022-09-20T01:16:29;5.72;;;1.73;;
59408;SDS011;45213;32.654;-115.458;2022-09-20T01:18:57;6.10;;;2.30;;
59408;SDS011;45213;32.654;-115.458;2022-09-20T01:21:28;10.73;;;3.10;;
59408;SDS011;45213;32.654;-115.458;2022-09-20T01:23:58;3.47;;;2.60;;
59408;SDS011;45213;32.654;-115.458;2022-09-20T01:31:49;6.47;;;2.78;;
59408;SDS011;45213;32.654;-115.458;2022-09-20T01:40:05;11.70;;;3.15;;
59408;SDS011;45213;32.654;-115.458;2022-09-20T01:45:44;10.40;;;2.60;;
59408;SDS011;45213;32.654;-115.458;2022-09-20T02:02:46;8.98;;;2.30;;
59408;SDS011;45213;32.654;-115.458;2022-09-20T02:07:59;12.77;;;3.50;;
59408;SDS011;45213;32.654;-115.458;2022-09-20T02:13:43;12.05;;;3.10;;
59408;SDS011;45213;32.654;-115.458;2022-09-20T02:16:35;12.20;;;3.28;;
59408;SDS011;45213;32.654;-115.458;2022-09-20T02:19:20;11.07;;;3.08;;
59408;SDS011;45213;32.654;-115.458;2022-09-20T02:25:03;19.17;;;3.63;;
59408;SDS011;45213;32.654;-115.458;2022-09-20T02:27:48;17.58;;;3.90;;
59408;SDS011;45213;32.654;-115.458;2022-09-20T02:39:19;20.20;;;4.53;;
59408;SDS011;45213;32.654;-115.458;2022-09-20T02:47:38;7.82;;;3.25;;
59408;SDS011;45213;32.654;-115.458;2022-09-20T02:50:14;10.63;;;3.30;;
59408;SDS011;45213;32.654;-115.458;2022-09-20T03:01:24;12.90;;;3.03;;
59408;SDS011;45213;32.654;-115.458;2022-09-20T03:10:30;20.38;;;4.20;;
59408;SDS011;45213;32.654;-115.458;2022-09-20T03:16:20;11.68;;;3.03;;
59408;SDS011;45213;32.654;-115.458;2022-09-20T03:24:39;10.85;;;2.50;;
59408;SDS011;45213;32.654;-115.458;2022-09-20T03:44:44;10.20;;;2.75;;
59408;SDS011;45213;32.654;-115.458;2022-09-20T03:53:00;9.27;;;2.85;;
59408;SDS011;45213;32.654;-115.458;2022-09-20T04:07:03;7.72;;;2.40;;
59408;SDS011;45213;32.654;-115.458;2022-09-20T04:23:55;7.07;;;3.05;;
59408;SDS011;45213;32.654;-115.458;2022-09-20T04:26:40;13.68;;;3.40;;
59408;SDS011;45213;32.654;-115.458;2022-09-20T04:31:44;10.32;;;3.38;;
59408;SDS011;45213;32.654;-115.458;2022-09-20T04:34:22;14.65;;;3.15;;
59408;SDS011;45213;32.654;-115.458;2022-09-20T04:42:52;8.95;;;5.05;;
59408;SDS011;45213;32.654;-115.458;2022-09-20T04:48:34;15.02;;;4.60;;
59408;SDS011;45213;32.654;-115.458;2022-09-20T04:53:56;11.07;;;4.15;;
59408;SDS011;45213;32.654;-115.458;2022-09-20T04:56:29;8.55;;;3.40;;
59408;SDS011;45213;32.654;-115.458;2022-09-20T04:59:04;11.00;;;3.85;;
59408;SDS011;45213;32.654;-115.458;2022-09-20T05:04:44;5.88;;;3.20;;
59408;SDS011;45213;32.654;-115.458;2022-09-20T05:10:10;8.35;;;3.53;;
59408;SDS011;45213;32.654;-115.458;2022-09-20T05:38:02;9.20;;;3.38;;
59408;SDS011;45213;32.654;-115.458;2022-09-20T05:43:35;9.48;;;3.55;;
59408;SDS011;45213;32.654;-115.458;2022-09-20T05:46:15;8.90;;;3.65;;
59408;SDS011;45213;32.654;-115.458;2022-09-20T06:05:12;7.63;;;2.75;;
59408;SDS011;45213;32.654;-115.458;2022-09-20T06:07:49;5.15;;;3.00;;
59408;SDS011;45213;32.654;-115.458;2022-09-20T06:10:30;9.40;;;3.60;;
59408;SDS011;45213;32.654;-115.458;2022-09-20T06:16:16;10.57;;;3.97;;
59408;SDS011;45213;32.654;-115.458;2022-09-20T06:19:00;9.88;;;3.50;;
59408;SDS011;45213;32.654;-115.458;2022-09-20T06:24:38;11.25;;;3.50;;
59408;SDS011;45213;32.654;-115.458;2022-09-20T06:27:22;9.55;;;3.33;;
59408;SDS011;45213;32.654;-115.458;2022-09-20T06:29:59;5.30;;;3.15;;
59408;SDS011;45213;32.654;-115.458;2022-09-20T06:32:30;11.75;;;3.22;;
59408;SDS011;45213;32.654;-115.458;2022-09-20T06:34:59;7.50;;;2.72;;
59408;SDS011;45213;32.654;-115.458;2022-09-20T06:37:32;9.43;;;3.50;;
59408;SDS011;45213;32.654;-115.458;2022-09-20T06:40:30;11.88;;;3.90;;
59408;SDS011;45213;32.654;-115.458;2022-09-20T06:43:22;6.63;;;3.40;;
59408;SDS011;45213;32.654;-115.458;2022-09-20T06:45:49;8.95;;;3.80;;
59408;SDS011;45213;32.654;-115.458;2022-09-20T06:48:15;7.57;;;3.53;;
59408;SDS011;45213;32.654;-115.458;2022-09-20T06:50:43;10.50;;;4.00;;
59408;SDS011;45213;32.654;-115.458;2022-09-20T06:53:13;7.03;;;3.33;;
59408;SDS011;45213;32.654;-115.458;2022-09-20T06:55:43;7.75;;;3.95;;
59408;SDS011;45213;32.654;-115.458;2022-09-20T06:58:11;10.18;;;3.55;;
59408;SDS011;45213;32.654;-115.458;2022-09-20T07:00:38;7.18;;;3.95;;
59408;SDS011;45213;32.654;-115.458;2022-09-20T07:03:04;6.55;;;3.30;;
59408;SDS011;45213;32.654;-115.458;2022-09-20T07:05:32;6.03;;;3.03;;
59408;SDS011;45213;32.654;-115.458;2022-09-20T07:07:58;7.57;;;3.13;;
59408;SDS011;45213;32.654;-115.458;2022-09-20T07:10:28;9.30;;;3.08;;
59408;SDS011;45213;32.654;-115.458;2022-09-20T07:12:56;10.43;;;3.47;;
59408;SDS011;45213;32.654;-115.458;2022-09-20T07:15:25;8.98;;;2.88;;
59408;SDS011;45213;32.654;-115.458;2022-09-20T07:17:57;7.28;;;3.28;;
59408;SDS011;45213;32.654;-115.458;2022-09-20T07:20:26;12.65;;;3.90;;
59408;SDS011;45213;32.654;-115.458;2022-09-20T07:22:53;6.47;;;3.40;;
59408;SDS011;45213;32.654;-115.458;2022-09-20T07:25:20;7.88;;;3.03;;
59408;SDS011;45213;32.654;-115.458;2022-09-20T07:27:48;6.68;;;3.25;;
59408;SDS011;45213;32.654;-115.458;2022-09-20T07:30:16;10.05;;;2.83;;
59408;SDS011;45213;32.654;-115.458;2022-09-20T07:32:43;10.25;;;3.17;;
59408;SDS011;45213;32.654;-115.458;2022-09-20T07:35:10;12.68;;;3.25;;
59408;SDS011;45213;32.654;-115.458;2022-09-20T07:37:37;9.07;;;3.45;;
59408;SDS011;45213;32.654;-115.458;2022-09-20T07:40:08;7.05;;;3.20;;
59408;SDS011;45213;32.654;-115.458;2022-09-20T07:42:35;6.55;;;2.97;;
59408;SDS011;45213;32.654;-115.458;2022-09-20T07:45:02;9.30;;;3.40;;
59408;SDS011;45213;32.654;-115.458;2022-09-20T07:47:29;12.32;;;3.38;;
59408;SDS011;45213;32.654;-115.458;2022-09-20T07:50:00;8.03;;;3.23;;
59408;SDS011;45213;32.654;-115.458;2022-09-20T07:52:27;9.05;;;3.17;;
59408;SDS011;45213;32.654;-115.458;2022-09-20T07:54:54;5.50;;;2.72;;
59408;SDS011;45213;32.654;-115.458;2022-09-20T07:57:20;10.32;;;2.97;;
59408;SDS011;45213;32.654;-115.458;2022-09-20T07:59:49;6.07;;;3.13;;
59408;SDS011;45213;32.654;-115.458;2022-09-20T08:02:18;7.38;;;3.10;;
59408;SDS011;45213;32.654;-115.458;2022-09-20T08:04:48;7.15;;;3.30;;
59408;SDS011;45213;32.654;-115.458;2022-09-20T08:07:15;6.28;;;2.90;;
59408;SDS011;45213;32.654;-115.458;2022-09-20T08:09:41;7.35;;;3.22;;
59408;SDS011;45213;32.654;-115.458;2022-09-20T08:12:08;11.70;;;3.30;;
59408;SDS011;45213;32.654;-115.458;2022-09-20T08:14:35;7.40;;;2.90;;
59408;SDS011;45213;32.654;-115.458;2022-09-20T08:17:01;10.05;;;3.20;;
59408;SDS011;45213;32.654;-115.458;2022-09-20T08:19:28;9.60;;;3.30;;
59408;SDS011;45213;32.654;-115.458;2022-09-20T08:21:55;9.07;;;3.35;;
59408;SDS011;45213;32.654;-115.458;2022-09-20T08:24:21;10.85;;;4.03;;
59408;SDS011;45213;32.654;-115.458;2022-09-20T08:26:50;12.38;;;4.30;;
59408;SDS011;45213;32.654;-115.458;2022-09-20T08:29:17;10.23;;;4.47;;
59408;SDS011;45213;32.654;-115.458;2022-09-20T08:31:44;15.40;;;4.55;;
59408;SDS011;45213;32.654;-115.458;2022-09-20T08:34:14;12.25;;;5.20;;
59408;SDS011;45213;32.654;-115.458;2022-09-20T08:36:43;16.25;;;5.07;;
59408;SDS011;45213;32.654;-115.458;2022-09-20T08:39:16;13.00;;;5.03;;
59408;SDS011;45213;32.654;-115.458;2022-09-20T08:46:51;11.45;;;4.07;;
59408;SDS011;45213;32.654;-115.458;2022-09-20T08:49:28;9.48;;;3.88;;
59408;SDS011;45213;32.654;-115.458;2022-09-20T08:51:56;8.98;;;3.83;;
59408;SDS011;45213;32.654;-115.458;2022-09-20T08:54:24;12.70;;;3.60;;
59408;SDS011;45213;32.654;-115.458;2022-09-20T08:56:52;7.70;;;3.85;;
59408;SDS011;45213;32.654;-115.458;2022-09-20T08:59:20;11.52;;;4.00;;
59408;SDS011;45213;32.654;-115.458;2022-09-20T09:01:48;10.98;;;4.68;;
59408;SDS011;45213;32.654;-115.458;2022-09-20T09:04:17;15.75;;;5.28;;
59408;SDS011;45213;32.654;-115.458;2022-09-20T09:06:46;12.80;;;4.88;;
59408;SDS011;45213;32.654;-115.458;2022-09-20T09:09:18;15.10;;;4.90;;
59408;SDS011;45213;32.654;-115.458;2022-09-20T09:11:48;14.15;;;4.57;;
59408;SDS011;45213;32.654;-115.458;2022-09-20T09:17:16;12.68;;;5.38;;
59408;SDS011;45213;32.654;-115.458;2022-09-20T09:19:51;12.35;;;4.70;;
59408;SDS011;45213;32.654;-115.458;2022-09-20T09:22:23;11.93;;;4.05;;
59408;SDS011;45213;32.654;-115.458;2022-09-20T09:30:35;11.23;;;3.25;;
59408;SDS011;45213;32.654;-115.458;2022-09-20T09:38:34;10.57;;;3.42;;
59408;SDS011;45213;32.654;-115.458;2022-09-20T09:41:19;6.78;;;3.30;;
59408;SDS011;45213;32.654;-115.458;2022-09-20T09:44:00;9.55;;;3.53;;
59408;SDS011;45213;32.654;-115.458;2022-09-20T09:46:32;8.70;;;3.60;;
59408;SDS011;45213;32.654;-115.458;2022-09-20T09:51:32;11.88;;;3.33;;
59408;SDS011;45213;32.654;-115.458;2022-09-20T09:53:59;6.03;;;3.15;;
59408;SDS011;45213;32.654;-115.458;2022-09-20T09:56:31;9.35;;;3.38;;
59408;SDS011;45213;32.654;-115.458;2022-09-20T10:02:20;12.43;;;3.72;;
59408;SDS011;45213;32.654;-115.458;2022-09-20T10:05:08;12.57;;;4.90;;
59408;SDS011;45213;32.654;-115.458;2022-09-20T10:07:45;8.65;;;4.43;;
59408;SDS011;45213;32.654;-115.458;2022-09-20T10:18:18;12.95;;;5.93;;
59408;SDS011;45213;32.654;-115.458;2022-09-20T10:30:03;13.43;;;4.57;;
59408;SDS011;45213;32.654;-115.458;2022-09-20T10:32:40;11.93;;;4.60;;
59408;SDS011;45213;32.654;-115.458;2022-09-20T10:38:24;8.30;;;4.00;;
59408;SDS011;45213;32.654;-115.458;2022-09-20T10:49:33;6.78;;;3.65;;
59408;SDS011;45213;32.654;-115.458;2022-09-20T10:52:12;10.48;;;4.32;;
59408;SDS011;45213;32.654;-115.458;2022-09-20T10:57:58;8.88;;;4.20;;
59408;SDS011;45213;32.654;-115.458;2022-09-20T11:03:06;9.20;;;3.75;;
59408;SDS011;45213;32.654;-115.458;2022-09-20T11:05:52;11.97;;;3.90;;
59408;SDS011;45213;32.654;-115.458;2022-09-20T11:08:34;9.07;;;4.32;;
59408;SDS011;45213;32.654;-115.458;2022-09-20T11:16:45;8.65;;;3.38;;
59408;SDS011;45213;32.654;-115.458;2022-09-20T11:19:25;7.90;;;3.70;;
59408;SDS011;45213;32.654;-115.458;2022-09-20T11:22:06;5.72;;;3.38;;
59408;SDS011;45213;32.654;-115.458;2022-09-20T11:24:43;8.38;;;3.65;;
59408;SDS011;45213;32.654;-115.458;2022-09-20T11:27:15;6.75;;;3.33;;
59408;SDS011;45213;32.654;-115.458;2022-09-20T11:40:43;7.03;;;3.88;;
59408;SDS011;45213;32.654;-115.458;2022-09-20T11:43:14;8.82;;;3.97;;
59408;SDS011;45213;32.654;-115.458;2022-09-20T11:45:42;9.13;;;5.38;;
59408;SDS011;45213;32.654;-115.458;2022-09-20T11:48:17;9.32;;;4.68;;
59408;SDS011;45213;32.654;-115.458;2022-09-20T11:56:57;8.80;;;3.60;;
59408;SDS011;45213;32.654;-115.458;2022-09-20T11:59:35;6.15;;;3.58;;
59408;SDS011;45213;32.654;-115.458;2022-09-20T12:05:04;7.05;;;3.83;;
59408;SDS011;45213;32.654;-115.458;2022-09-20T12:07:36;7.95;;;4.57;;
59408;SDS011;45213;32.654;-115.458;2022-09-20T12:10:05;9.35;;;4.20;;
59408;SDS011;45213;32.654;-115.458;2022-09-20T12:12:56;8.70;;;4.03;;
59408;SDS011;45213;32.654;-115.458;2022-09-20T12:28:46;8.98;;;3.90;;
59408;SDS011;45213;32.654;-115.458;2022-09-20T12:39:22;8.88;;;3.63;;
59408;SDS011;45213;32.654;-115.458;2022-09-20T12:47:19;9.20;;;3.70;;
59408;SDS011;45213;32.654;-115.458;2022-09-20T12:52:36;14.40;;;4.40;;
59408;SDS011;45213;32.654;-115.458;2022-09-20T12:58:03;10.20;;;4.05;;
59408;SDS011;45213;32.654;-115.458;2022-09-20T13:00:40;15.63;;;4.22;;
59408;SDS011;45213;32.654;-115.458;2022-09-20T13:11:38;9.25;;;3.67;;
59408;SDS011;45213;32.654;-115.458;2022-09-20T13:16:56;12.10;;;4.25;;
59408;SDS011;45213;32.654;-115.458;2022-09-20T13:24:39;16.88;;;4.72;;
59408;SDS011;45213;32.654;-115.458;2022-09-20T13:30:19;12.98;;;4.75;;
59408;SDS011;45213;32.654;-115.458;2022-09-20T13:32:48;19.98;;;4.97;;
59408;SDS011;45213;32.654;-115.458;2022-09-20T13:35:17;17.63;;;5.05;;
59408;SDS011;45213;32.654;-115.458;2022-09-20T13:37:57;16.23;;;4.78;;
59408;SDS011;45213;32.654;-115.458;2022-09-20T13:40:32;14.95;;;4.82;;
59408;SDS011;45213;32.654;-115.458;2022-09-20T13:43:01;17.63;;;5.55;;
59408;SDS011;45213;32.654;-115.458;2022-09-20T13:48:23;19.90;;;5.65;;
59408;SDS011;45213;32.654;-115.458;2022-09-20T13:50:54;19.45;;;5.22;;
59408;SDS011;45213;32.654;-115.458;2022-09-20T13:53:22;20.70;;;5.88;;
59408;SDS011;45213;32.654;-115.458;2022-09-20T13:55:50;23.02;;;6.00;;
59408;SDS011;45213;32.654;-115.458;2022-09-20T14:00:59;26.75;;;6.45;;
59408;SDS011;45213;32.654;-115.458;2022-09-20T14:03:29;17.20;;;4.63;;
59408;SDS011;45213;32.654;-115.458;2022-09-20T14:06:00;15.25;;;4.28;;
59408;SDS011;45213;32.654;-115.458;2022-09-20T14:08:35;20.73;;;5.13;;
59408;SDS011;45213;32.654;-115.458;2022-09-20T14:13:38;20.35;;;5.35;;
59408;SDS011;45213;32.654;-115.458;2022-09-20T14:16:07;21.55;;;5.25;;
59408;SDS011;45213;32.654;-115.458;2022-09-20T14:18:35;25.90;;;6.10;;
59408;SDS011;45213;32.654;-115.458;2022-09-20T14:21:05;27.20;;;5.78;;
59408;SDS011;45213;32.654;-115.458;2022-09-20T14:23:56;19.25;;;4.90;;
59408;SDS011;45213;32.654;-115.458;2022-09-20T14:26:37;24.15;;;6.18;;
59408;SDS011;45213;32.654;-115.458;2022-09-20T14:32:00;24.92;;;6.03;;
59408;SDS011;45213;32.654;-115.458;2022-09-20T14:37:25;25.60;;;6.35;;
59408;SDS011;45213;32.654;-115.458;2022-09-20T14:40:18;16.42;;;5.97;;
59408;SDS011;45213;32.654;-115.458;2022-09-20T14:42:58;25.92;;;6.55;;
59408;SDS011;45213;32.654;-115.458;2022-09-20T14:45:33;18.98;;;5.85;;
59408;SDS011;45213;32.654;-115.458;2022-09-20T14:55:38;22.58;;;6.13;;
59408;SDS011;45213;32.654;-115.458;2022-09-20T14:58:25;15.52;;;5.20;;
59408;SDS011;45213;32.654;-115.458;2022-09-20T15:00:55;13.35;;;5.05;;
59408;SDS011;45213;32.654;-115.458;2022-09-20T15:03:35;20.63;;;5.07;;
59408;SDS011;45213;32.654;-115.458;2022-09-20T15:06:04;21.67;;;5.55;;
59408;SDS011;45213;32.654;-115.458;2022-09-20T15:08:35;16.88;;;5.65;;
59408;SDS011;45213;32.654;-115.458;2022-09-20T15:11:01;19.92;;;5.70;;
59408;SDS011;45213;32.654;-115.458;2022-09-20T15:13:29;16.10;;;5.68;;
59408;SDS011;45213;32.654;-115.458;2022-09-20T15:15:55;19.52;;;5.28;;
59408;SDS011;45213;32.654;-115.458;2022-09-20T15:18:27;18.98;;;5.93;;
59408;SDS011;45213;32.654;-115.458;2022-09-20T15:20:59;21.30;;;5.20;;
59408;SDS011;45213;32.654;-115.458;2022-09-20T15:23:26;25.42;;;5.65;;
59408;SDS011;45213;32.654;-115.458;2022-09-20T15:25:53;18.75;;;4.78;;
59408;SDS011;45213;32.654;-115.458;2022-09-20T15:28:20;14.88;;;5.03;;
59408;SDS011;45213;32.654;-115.458;2022-09-20T15:30:48;15.07;;;4.93;;
59408;SDS011;45213;32.654;-115.458;2022-09-20T15:33:16;11.00;;;4.47;;
59408;SDS011;45213;32.654;-115.458;2022-09-20T15:35:44;13.35;;;4.72;;
59408;SDS011;45213;32.654;-115.458;2022-09-20T15:38:11;9.77;;;3.85;;
59408;SDS011;45213;32.654;-115.458;2022-09-20T15:40:44;12.32;;;4.18;;
59408;SDS011;45213;32.654;-115.458;2022-09-20T15:43:17;8.70;;;3.22;;
59408;SDS011;45213;32.654;-115.458;2022-09-20T15:45:53;14.02;;;4.25;;
59408;SDS011;45213;32.654;-115.458;2022-09-20T15:48:23;9.60;;;3.42;;
59408;SDS011;45213;32.654;-115.458;2022-09-20T15:50:58;6.50;;;2.55;;
59408;SDS011;45213;32.654;-115.458;2022-09-20T15:53:41;10.35;;;3.28;;
59408;SDS011;45213;32.654;-115.458;2022-09-20T15:58:51;8.48;;;2.20;;
59408;SDS011;45213;32.654;-115.458;2022-09-20T16:01:26;7.10;;;2.10;;
59408;SDS011;45213;32.654;-115.458;2022-09-20T16:03:54;9.55;;;3.08;;
59408;SDS011;45213;32.654;-115.458;2022-09-20T16:06:21;8.38;;;2.28;;
59408;SDS011;45213;32.654;-115.458;2022-09-20T16:08:49;7.55;;;2.75;;
59408;SDS011;45213;32.654;-115.458;2022-09-20T16:11:17;5.25;;;2.00;;
59408;SDS011;45213;32.654;-115.458;2022-09-20T16:13:45;6.75;;;2.13;;
59408;SDS011;45213;32.654;-115.458;2022-09-20T16:16:20;7.15;;;2.20;;
59408;SDS011;45213;32.654;-115.458;2022-09-20T16:18:47;3.40;;;1.80;;
59408;SDS011;45213;32.654;-115.458;2022-09-20T16:21:32;4.53;;;1.80;;
59408;SDS011;45213;32.654;-115.458;2022-09-20T16:23:59;4.07;;;1.80;;
59408;SDS011;45213;32.654;-115.458;2022-09-20T16:26:27;5.63;;;1.88;;
59408;SDS011;45213;32.654;-115.458;2022-09-20T16:28:55;3.33;;;1.40;;
59408;SDS011;45213;32.654;-115.458;2022-09-20T16:31:35;6.13;;;1.83;;
59408;SDS011;45213;32.654;-115.458;2022-09-20T16:34:16;5.28;;;1.60;;
59408;SDS011;45213;32.654;-115.458;2022-09-20T16:36:57;5.68;;;1.58;;
59408;SDS011;45213;32.654;-115.458;2022-09-20T16:39:44;3.22;;;1.10;;
59408;SDS011;45213;32.654;-115.458;2022-09-20T16:42:11;4.60;;;1.48;;
59408;SDS011;45213;32.654;-115.458;2022-09-20T16:44:39;5.18;;;1.42;;
59408;SDS011;45213;32.654;-115.458;2022-09-20T16:47:09;6.30;;;1.50;;
59408;SDS011;45213;32.654;-115.458;2022-09-20T16:49:39;5.95;;;1.52;;
59408;SDS011;45213;32.654;-115.458;2022-09-20T16:52:06;2.38;;;1.35;;
59408;SDS011;45213;32.654;-115.458;2022-09-20T16:54:34;4.15;;;1.92;;
59408;SDS011;45213;32.654;-115.458;2022-09-20T16:57:01;3.38;;;1.30;;
59408;SDS011;45213;32.654;-115.458;2022-09-20T16:59:29;4.45;;;1.23;;
59408;SDS011;45213;32.654;-115.458;2022-09-20T17:01:56;2.72;;;1.13;;
59408;SDS011;45213;32.654;-115.458;2022-09-20T17:04:23;2.90;;;1.50;;
59408;SDS011;45213;32.654;-115.458;2022-09-20T17:06:49;1.95;;;1.00;;
59408;SDS011;45213;32.654;-115.458;2022-09-20T17:09:16;3.47;;;1.05;;
59408;SDS011;45213;32.654;-115.458;2022-09-20T17:11:45;1.83;;;1.08;;
59408;SDS011;45213;32.654;-115.458;2022-09-20T17:14:14;3.92;;;1.23;;
59408;SDS011;45213;32.654;-115.458;2022-09-20T17:16:43;2.00;;;1.02;;
59408;SDS011;45213;32.654;-115.458;2022-09-20T17:19:13;2.30;;;1.08;;
59408;SDS011;45213;32.654;-115.458;2022-09-20T17:21:43;2.85;;;0.90;;
59408;SDS011;45213;32.654;-115.458;2022-09-20T17:24:14;1.58;;;1.00;;
59408;SDS011;45213;32.654;-115.458;2022-09-20T17:26:43;2.95;;;1.15;;
59408;SDS011;45213;32.654;-115.458;2022-09-20T17:29:11;2.60;;;0.90;;
59408;SDS011;45213;32.654;-115.458;2022-09-20T17:31:42;3.55;;;1.42;;
59408;SDS011;45213;32.654;-115.458;2022-09-20T17:34:10;1.90;;;0.98;;
59408;SDS011;45213;32.654;-115.458;2022-09-20T17:36:41;1.33;;;1.02;;
59408;SDS011;45213;32.654;-115.458;2022-09-20T17:39:09;1.92;;;1.23;;
59408;SDS011;45213;32.654;-115.458;2022-09-20T17:41:38;2.67;;;1.15;;
59408;SDS011;45213;32.654;-115.458;2022-09-20T17:44:06;3.65;;;1.33;;
59408;SDS011;45213;32.654;-115.458;2022-09-20T17:46:35;4.00;;;1.20;;
59408;SDS011;45213;32.654;-115.458;2022-09-20T17:49:05;3.17;;;1.13;;
59408;SDS011;45213;32.654;-115.458;2022-09-20T17:51:34;3.03;;;1.27;;
59408;SDS011;45213;32.654;-115.458;2022-09-20T17:54:02;46.33;;;4.78;;
59408;SDS011;45213;32.654;-115.458;2022-09-20T17:56:30;2.88;;;0.95;;
59408;SDS011;45213;32.654;-115.458;2022-09-20T17:58:57;2.75;;;0.90;;
59408;SDS011;45213;32.654;-115.458;2022-09-20T18:01:25;1.55;;;1.00;;
59408;SDS011;45213;32.654;-115.458;2022-09-20T18:03:53;1.10;;;0.90;;
59408;SDS011;45213;32.654;-115.458;2022-09-20T18:06:24;2.85;;;1.10;;
59408;SDS011;45213;32.654;-115.458;2022-09-20T18:08:59;1.98;;;1.30;;
59408;SDS011;45213;32.654;-115.458;2022-09-20T18:11:31;4.20;;;1.10;;
59408;SDS011;45213;32.654;-115.458;2022-09-20T18:14:01;3.15;;;1.13;;
59408;SDS011;45213;32.654;-115.458;2022-09-20T18:16:28;2.35;;;1.08;;
59408;SDS011;45213;32.654;-115.458;2022-09-20T18:18:56;2.47;;;1.00;;
59408;SDS011;45213;32.654;-115.458;2022-09-20T18:21:25;4.75;;;1.40;;
59408;SDS011;45213;32.654;-115.458;2022-09-20T18:23:53;5.28;;;1.10;;
59408;SDS011;45213;32.654;-115.458;2022-09-20T18:26:23;3.50;;;1.10;;
59408;SDS011;45213;32.654;-115.458;2022-09-20T18:28:53;3.17;;;1.23;;
59408;SDS011;45213;32.654;-115.458;2022-09-20T18:31:29;2.17;;;1.02;;
59408;SDS011;45213;32.654;-115.458;2022-09-20T18:34:04;2.53;;;1.10;;
59408;SDS011;45213;32.654;-115.458;2022-09-20T18:36:33;6.40;;;1.08;;
59408;SDS011;45213;32.654;-115.458;2022-09-20T18:39:04;3.72;;;0.95;;
59408;SDS011;45213;32.654;-115.458;2022-09-20T18:41:32;6.32;;;1.73;;
59408;SDS011;45213;32.654;-115.458;2022-09-20T18:44:01;3.30;;;1.38;;
59408;SDS011;45213;32.654;-115.458;2022-09-20T18:46:28;3.17;;;1.17;;
59408;SDS011;45213;32.654;-115.458;2022-09-20T18:48:59;7.38;;;1.40;;
59408;SDS011;45213;32.654;-115.458;2022-09-20T18:51:29;3.05;;;1.27;;
59408;SDS011;45213;32.654;-115.458;2022-09-20T18:53:56;2.60;;;1.10;;
59408;SDS011;45213;32.654;-115.458;2022-09-20T18:56:28;5.78;;;1.70;;
59408;SDS011;45213;32.654;-115.458;2022-09-20T19:06:57;3.83;;;1.33;;
59408;SDS011;45213;32.654;-115.458;2022-09-20T19:10:00;4.43;;;1.27;;
59408;SDS011;45213;32.654;-115.458;2022-09-20T19:20:55;3.13;;;1.30;;
59408;SDS011;45213;32.654;-115.458;2022-09-20T19:26:28;4.55;;;1.40;;
59408;SDS011;45213;32.654;-115.458;2022-09-20T19:28:56;2.42;;;1.17;;
59408;SDS011;45213;32.654;-115.458;2022-09-20T19:33:54;3.22;;;1.10;;
59408;SDS011;45213;32.654;-115.458;2022-09-20T19:36:22;2.25;;;1.17;;
59408;SDS011;45213;32.654;-115.458;2022-09-20T19:50:13;9.20;;;1.50;;
59408;SDS011;45213;32.654;-115.458;2022-09-20T19:53:00;4.72;;;1.40;;
59408;SDS011;45213;32.654;-115.458;2022-09-20T19:55:31;3.22;;;1.63;;
59408;SDS011;45213;32.654;-115.458;2022-09-20T19:57:59;4.85;;;1.80;;
59408;SDS011;45213;32.654;-115.458;2022-09-20T20:00:27;5.22;;;1.38;;
59408;SDS011;45213;32.654;-115.458;2022-09-20T20:02:54;3.15;;;1.38;;
59408;SDS011;45213;32.654;-115.458;2022-09-20T20:05:21;4.78;;;1.45;;
59408;SDS011;45213;32.654;-115.458;2022-09-20T20:08:15;3.28;;;1.50;;
59408;SDS011;45213;32.654;-115.458;2022-09-20T20:13:45;6.55;;;1.92;;
59408;SDS011;45213;32.654;-115.458;2022-09-20T20:16:35;4.18;;;1.83;;
59408;SDS011;45213;32.654;-115.458;2022-09-20T20:22:39;4.10;;;1.67;;
59408;SDS011;45213;32.654;-115.458;2022-09-20T20:25:29;4.57;;;1.60;;
59408;SDS011;45213;32.654;-115.458;2022-09-20T20:28:07;5.38;;;2.10;;
59408;SDS011;45213;32.654;-115.458;2022-09-20T20:30:34;6.05;;;2.10;;
59408;SDS011;45213;32.654;-115.458;2022-09-20T20:33:01;4.60;;;1.50;;
59408;SDS011;45213;32.654;-115.458;2022-09-20T20:35:30;3.88;;;1.58;;
59408;SDS011;45213;32.654;-115.458;2022-09-20T20:38:00;4.90;;;1.98;;
59408;SDS011;45213;32.654;-115.458;2022-09-20T20:40:34;6.30;;;1.92;;
59408;SDS011;45213;32.654;-115.458;2022-09-20T20:43:01;24.08;;;4.32;;
59408;SDS011;45213;32.654;-115.458;2022-09-20T20:45:30;6.10;;;2.05;;
59408;SDS011;45213;32.654;-115.458;2022-09-20T20:47:57;3.13;;;1.80;;
59408;SDS011;45213;32.654;-115.458;2022-09-20T20:50:24;6.72;;;1.80;;
59408;SDS011;45213;32.654;-115.458;2022-09-20T20:52:52;4.75;;;2.20;;
59408;SDS011;45213;32.654;-115.458;2022-09-20T20:55:20;4.53;;;2.10;;
59408;SDS011;45213;32.654;-115.458;2022-09-20T20:57:53;10.43;;;2.15;;
59408;SDS011;45213;32.654;-115.458;2022-09-20T21:00:24;5.55;;;1.70;;
59408;SDS011;45213;32.654;-115.458;2022-09-20T21:02:56;6.57;;;2.05;;
59408;SDS011;45213;32.654;-115.458;2022-09-20T21:05:23;5.95;;;1.92;;
59408;SDS011;45213;32.654;-115.458;2022-09-20T21:07:51;4.35;;;1.85;;
59408;SDS011;45213;32.654;-115.458;2022-09-20T21:10:18;6.35;;;1.70;;
59408;SDS011;45213;32.654;-115.458;2022-09-20T21:12:52;5.72;;;1.67;;